Archer, Nebraska
Current Conditions -  °F | °C
As of 6:06 PM on Saturday 20 Dec 2014 (Local Time) from KGRI Reporting Station
Moderate Fog Moderate Fog  
Wind Chill: -5°   Ceiling: 200
Heat Index: -1°   Visibility: 0.25mi
Dew Point: -1°   Wind: 10mph
Humidity: 100%   Direction: 140°SE
Pressure: 29.99"   Gusts: NA
Location:  41.17°N, 98.14°W
Report Text: KGRI 210006Z 14009KT 1/4SM R35/1800V2200FT FZFG VV002 M01/M01 A2999 RMK AO2 T10061006
Loading
Personal Weather Stations






























Interactive Weather Map New forecast layout! Learn more

10-Day Weather Forecast

Advertisements
Track Severe Weather on mobile